createdAt,value
2023-03-24T00:02:05.973Z,99883.56
2023-03-24T00:04:33.190Z,99884.22
2023-03-24T00:07:02.980Z,99875.78
2023-03-24T00:09:30.488Z,99862.38
2023-03-24T00:11:58.092Z,99863.94
2023-03-24T00:14:25.277Z,99855.44
2023-03-24T00:16:51.744Z,99854.94
2023-03-24T00:19:18.643Z,99850.38
2023-03-24T00:21:44.941Z,99842.25
2023-03-24T00:24:12.910Z,99838.69
2023-03-24T00:26:44.299Z,99825.31
2023-03-24T00:29:13.307Z,99819.38
2023-03-24T00:31:39.784Z,99821.56
2023-03-24T00:34:09.102Z,99825.63
2023-03-24T00:36:36.322Z,99820.22
2023-03-24T00:39:05.932Z,99810.72
2023-03-24T00:41:32.559Z,99810.88
2023-03-24T00:44:01.929Z,99812.63
2023-03-24T00:46:31.099Z,99805.94
2023-03-24T00:49:06.773Z,99800.00
2023-03-24T00:51:39.016Z,99801.00
2023-03-24T00:54:10.105Z,99799.69
2023-03-24T00:56:38.028Z,99790.34
2023-03-24T00:59:07.133Z,99792.00
2023-03-24T01:01:41.616Z,99787.59
2023-03-24T01:04:12.247Z,99783.31
2023-03-24T01:06:39.025Z,99782.31
2023-03-24T01:09:10.111Z,99763.84
2023-03-24T01:11:44.388Z,99766.88
2023-03-24T01:14:13.955Z,99764.84
2023-03-24T01:16:43.452Z,99772.78
2023-03-24T01:19:14.220Z,99763.47
2023-03-24T01:21:40.863Z,99764.13
2023-03-24T01:24:12.593Z,99766.09
2023-03-24T01:26:41.364Z,99749.16
2023-03-24T01:29:07.812Z,99759.31
2023-03-24T01:31:35.080Z,99759.50
2023-03-24T01:34:02.023Z,99746.13
2023-03-24T01:36:30.898Z,99749.13
2023-03-24T01:39:05.607Z,99748.84
2023-03-24T01:41:37.467Z,99737.63
2023-03-24T01:44:43.635Z,99729.09
2023-03-24T01:47:09.865Z,99742.19
2023-03-24T01:49:50.401Z,99725.84
2023-03-24T01:52:26.785Z,99741.28
2023-03-24T01:54:54.951Z,99733.78
2023-03-24T01:57:28.706Z,99735.31
2023-03-24T01:59:58.898Z,99722.66
2023-03-24T02:02:27.441Z,99714.50
2023-03-24T02:04:59.744Z,99715.91
2023-03-24T02:07:41.909Z,99729.97
2023-03-24T02:10:16.488Z,99711.47
2023-03-24T02:12:44.433Z,99709.09
2023-03-24T02:15:13.812Z,99690.75
2023-03-24T02:18:00.447Z,99701.91
2023-03-24T02:21:04.098Z,99707.03
2023-03-24T02:24:05.646Z,99710.97
2023-03-24T02:26:52.302Z,99705.84
2023-03-24T02:30:09.204Z,99715.19
2023-03-24T02:32:44.833Z,99741.81
2023-03-24T02:35:43.381Z,99767.09
2023-03-24T02:38:37.774Z,99782.50
2023-03-24T02:41:33.189Z,99779.91
2023-03-24T02:44:11.001Z,99778.78
2023-03-24T02:46:49.139Z,99778.28
2023-03-24T02:49:21.635Z,99779.66
2023-03-24T02:51:56.462Z,99781.53
2023-03-24T02:54:31.437Z,99778.50
2023-03-24T02:57:20.095Z,99781.78
2023-03-24T02:59:58.599Z,99802.19
2023-03-24T03:02:36.183Z,99810.31
2023-03-24T03:05:10.907Z,99823.69
2023-03-24T03:07:37.897Z,99840.16
2023-03-24T03:10:15.485Z,99836.44
2023-03-24T03:12:44.178Z,99839.38
2023-03-24T03:15:16.328Z,99838.88
2023-03-24T03:17:48.954Z,99844.81
2023-03-24T03:20:21.887Z,99842.81
2023-03-24T03:23:00.692Z,99858.56
2023-03-24T03:25:35.031Z,99864.00
2023-03-24T03:28:04.543Z,99867.91
2023-03-24T03:30:33.971Z,99860.63
2023-03-24T03:33:06.828Z,99878.44
2023-03-24T03:35:47.370Z,99860.50
2023-03-24T03:38:22.654Z,99880.13
2023-03-24T03:41:04.096Z,99879.13
2023-03-24T03:43:33.310Z,99892.31
2023-03-24T03:46:01.299Z,99875.91
2023-03-24T03:48:28.671Z,99893.00
2023-03-24T03:51:10.266Z,99907.91
2023-03-24T03:53:54.629Z,99921.56
2023-03-24T03:56:24.497Z,99916.31
2023-03-24T03:58:51.085Z,99925.28
2023-03-24T04:01:21.015Z,99927.16
2023-03-24T04:04:08.384Z,99936.78
2023-03-24T04:06:41.158Z,99943.03
2023-03-24T04:09:54.206Z,99940.28
2023-03-24T04:12:42.310Z,99946.72
2023-03-24T04:15:17.093Z,99948.38
2023-03-24T04:18:10.892Z,99945.16
2023-03-24T04:20:50.311Z,99952.25
2023-03-24T04:23:30.549Z,99963.94
2023-03-24T04:26:04.868Z,99958.00
2023-03-24T04:28:56.061Z,99970.31
2023-03-24T04:31:40.751Z,99976.56
2023-03-24T04:34:28.561Z,99990.94
2023-03-24T04:37:05.361Z,99981.81
2023-03-24T04:39:37.412Z,99989.06
2023-03-24T04:42:08.574Z,100004.63
2023-03-24T04:44:35.251Z,100001.75
2023-03-24T04:47:05.376Z,99991.28
2023-03-24T04:49:31.726Z,99996.47
2023-03-24T04:51:58.152Z,100006.28
2023-03-24T04:54:24.649Z,100010.66
2023-03-24T04:57:03.200Z,100009.34
2023-03-24T04:59:32.995Z,100011.53
2023-03-24T05:02:00.370Z,100019.97
2023-03-24T05:04:30.585Z,100028.53
2023-03-24T05:06:58.526Z,100030.25
2023-03-24T05:09:28.544Z,100021.75
2023-03-24T05:12:02.182Z,100036.25
2023-03-24T05:14:28.545Z,100031.53
2023-03-24T05:16:56.159Z,100043.38
2023-03-24T05:19:24.887Z,100038.59
2023-03-24T05:21:51.274Z,100044.31
2023-03-24T05:24:22.109Z,100045.63
2023-03-24T05:26:48.446Z,100052.75
2023-03-24T05:29:14.790Z,100058.50
2023-03-24T05:31:42.296Z,100063.19
2023-03-24T05:34:10.499Z,100065.53
2023-03-24T05:36:36.803Z,100066.72
2023-03-24T05:39:09.066Z,100069.75
2023-03-24T05:41:35.442Z,100071.69
2023-03-24T05:44:03.354Z,100084.88
2023-03-24T05:46:32.831Z,100090.44
2023-03-24T05:49:01.652Z,100078.94
2023-03-24T05:51:28.234Z,100082.31
2023-03-24T05:53:54.578Z,100098.53
2023-03-24T05:56:20.944Z,100094.97
2023-03-24T05:58:51.179Z,100087.91
2023-03-24T06:01:19.684Z,100083.84
2023-03-24T06:03:46.386Z,100076.38
2023-03-24T06:06:13.104Z,100100.59
2023-03-24T06:08:43.243Z,100092.84
2023-03-24T06:11:09.637Z,100096.56
2023-03-24T06:13:36.032Z,100102.53
2023-03-24T06:16:08.113Z,100114.47
2023-03-24T06:18:37.019Z,100108.53
2023-03-24T06:21:06.436Z,100104.22
2023-03-24T06:23:32.956Z,100111.19
2023-03-24T06:25:59.601Z,100125.25
2023-03-24T06:28:26.020Z,100115.41
2023-03-24T06:30:52.989Z,100112.41
2023-03-24T06:33:19.403Z,100119.50
2023-03-24T06:35:46.289Z,100116.31
2023-03-24T06:38:26.185Z,100117.16
2023-03-24T06:40:52.582Z,100117.22
2023-03-24T06:43:18.922Z,100116.75
2023-03-24T06:45:45.996Z,100121.34
2023-03-24T06:48:12.581Z,100125.44
2023-03-24T06:50:42.199Z,100131.00
2023-03-24T06:53:08.734Z,100141.31
2023-03-24T06:55:35.118Z,100126.13
2023-03-24T06:58:11.754Z,100140.72
2023-03-24T07:00:38.101Z,100136.56
2023-03-24T07:03:04.684Z,100140.66
2023-03-24T07:05:31.555Z,100149.75
2023-03-24T07:10:32.216Z,100148.97
2023-03-24T07:13:04.793Z,100162.78
2023-03-24T07:15:34.437Z,100166.19
2023-03-24T07:18:02.088Z,100168.22
2023-03-24T07:20:28.544Z,100168.06
2023-03-24T07:23:00.858Z,100169.75
2023-03-24T07:25:29.824Z,100172.31
2023-03-24T07:27:59.227Z,100170.47
2023-03-24T07:30:37.211Z,100181.31
2023-03-24T07:33:09.877Z,100184.88
2023-03-24T07:35:38.637Z,100188.44
2023-03-24T07:38:05.567Z,100185.03
2023-03-24T07:40:35.000Z,100194.03
2023-03-24T07:43:10.753Z,100203.22
2023-03-24T07:45:48.779Z,100199.84
2023-03-24T07:48:16.900Z,100189.34
2023-03-24T07:50:46.118Z,100196.59
2023-03-24T08:06:58.737Z,100209.09
2023-03-24T08:09:25.197Z,100221.94
2023-03-24T08:11:51.604Z,100209.91
2023-03-24T08:19:56.138Z,100209.69
2023-03-24T08:22:28.345Z,100209.16
2023-03-24T08:24:54.723Z,100211.03
2023-03-24T08:27:21.450Z,100211.88
2023-03-24T08:29:50.699Z,100215.63
2023-03-24T08:40:26.962Z,100221.56
2023-03-24T08:42:58.995Z,100230.31
2023-03-24T08:45:31.802Z,100236.91
2023-03-24T08:48:01.052Z,100229.75
2023-03-24T08:50:29.970Z,100244.59
2023-03-24T08:52:57.149Z,100255.47
2023-03-24T08:55:30.602Z,100244.53
2023-03-24T08:57:56.944Z,100243.31
2023-03-24T09:00:26.096Z,100252.44
2023-03-24T09:02:54.112Z,100250.53
2023-03-24T09:05:32.888Z,100268.28
2023-03-24T09:08:07.832Z,100273.84
2023-03-24T09:10:34.328Z,100280.88
2023-03-24T09:13:00.671Z,100262.16
2023-03-24T09:15:29.440Z,100274.06
2023-03-24T09:17:55.804Z,100266.47
2023-03-24T09:20:22.203Z,100278.53
2023-03-24T09:22:48.618Z,100287.47
2023-03-24T09:25:18.614Z,100288.09
2023-03-24T09:27:47.528Z,100288.16
2023-03-24T09:30:19.349Z,100283.94
2023-03-24T09:32:45.919Z,100284.47
2023-03-24T09:35:15.087Z,100267.34
2023-03-24T09:37:43.799Z,100260.81
2023-03-24T09:40:20.203Z,100275.94
2023-03-24T09:42:50.381Z,100277.81
2023-03-24T09:45:20.368Z,100283.78
2023-03-24T09:47:52.858Z,100278.38
2023-03-24T09:50:58.345Z,100280.72
2023-03-24T09:53:57.096Z,100287.53
2023-03-24T09:56:25.729Z,100284.81
2023-03-24T09:59:03.808Z,100289.34
2023-03-24T10:01:31.800Z,100288.50
2023-03-24T10:04:00.147Z,100312.69
2023-03-24T10:06:54.618Z,100312.28
2023-03-24T10:09:31.811Z,100315.50
2023-03-24T10:12:28.753Z,100302.75
2023-03-24T10:15:24.362Z,100305.59
2023-03-24T10:18:13.707Z,100298.50
2023-03-24T10:20:58.072Z,100295.13
2023-03-24T10:23:33.008Z,100287.34
2023-03-24T10:26:33.555Z,100306.59
2023-03-24T10:29:28.309Z,100305.91
2023-03-24T10:32:10.250Z,100309.81
2023-03-24T10:34:41.031Z,100310.91
2023-03-24T10:37:07.483Z,100307.81
2023-03-24T10:39:44.326Z,100297.88
2023-03-24T10:42:17.930Z,100293.88
2023-03-24T10:44:47.070Z,100313.63
2023-03-24T10:47:14.754Z,100294.88
2023-03-24T10:49:53.900Z,100298.25
2023-03-24T10:52:24.552Z,100309.38
2023-03-24T10:55:02.355Z,100302.56
2023-03-24T10:57:32.812Z,100308.84
2023-03-24T10:59:59.058Z,100316.03
2023-03-24T11:02:43.763Z,100309.06
2023-03-24T11:05:11.447Z,100312.59
2023-03-24T11:07:40.184Z,100324.31
2023-03-24T11:10:09.652Z,100330.78
2023-03-24T11:12:39.866Z,100319.75
2023-03-24T11:15:22.876Z,100328.06
2023-03-24T11:17:57.219Z,100323.28
2023-03-24T11:20:38.521Z,100325.72
2023-03-24T11:23:29.404Z,100321.31
2023-03-24T11:26:22.453Z,100319.38
2023-03-24T11:28:57.896Z,100324.59
2023-03-24T11:31:27.644Z,100319.44
2023-03-24T11:34:02.419Z,100330.75
2023-03-24T11:36:28.724Z,100320.69
2023-03-24T11:39:11.523Z,100317.47
2023-03-24T11:41:50.118Z,100320.59
2023-03-24T11:44:27.391Z,100331.06
2023-03-24T11:47:06.554Z,100321.81
2023-03-24T11:49:49.820Z,100316.75
2023-03-24T11:52:28.328Z,100332.78
2023-03-24T11:54:55.404Z,100340.97
2023-03-24T11:57:52.247Z,100338.09
2023-03-24T12:00:32.282Z,100329.22
2023-03-24T12:03:06.976Z,100329.56
2023-03-24T12:06:02.394Z,100336.19
2023-03-24T12:08:54.631Z,100340.75
2023-03-24T12:11:31.659Z,100336.34
2023-03-24T12:14:01.599Z,100321.78
2023-03-24T12:16:41.439Z,100327.41
2023-03-24T12:19:39.764Z,100326.72
2023-03-24T12:22:19.735Z,100326.53
2023-03-24T12:25:01.093Z,100310.22
2023-03-24T12:27:53.672Z,100313.22
2023-03-24T12:30:38.679Z,100307.00
2023-03-24T12:33:36.405Z,100310.00
2023-03-24T12:36:18.858Z,100308.25
2023-03-24T12:39:06.486Z,100298.81
2023-03-24T12:41:42.942Z,100310.59
2023-03-24T12:44:40.045Z,100303.56
2023-03-24T12:47:39.700Z,100305.59
2023-03-24T12:50:20.231Z,100297.56
2023-03-24T12:53:14.478Z,100293.13
2023-03-24T12:55:48.247Z,100313.38
2023-03-24T12:58:44.712Z,100308.69
2023-03-24T13:01:29.584Z,100298.09
2023-03-24T13:04:03.522Z,100303.34
2023-03-24T13:06:37.800Z,100298.31
2023-03-24T13:09:39.438Z,100303.44
2023-03-24T13:12:21.250Z,100316.03
2023-03-24T13:15:12.428Z,100312.81
2023-03-24T13:17:57.020Z,100311.25
2023-03-24T13:20:29.518Z,100315.81
2023-03-24T13:23:00.484Z,100302.47
2023-03-24T13:25:51.126Z,100312.28
2023-03-24T13:28:30.238Z,100302.78
2023-03-24T13:30:57.423Z,100304.66
2023-03-24T13:33:29.167Z,100300.91
2023-03-24T13:36:47.878Z,100300.03
2023-03-24T13:39:23.014Z,100293.59
2023-03-24T13:41:55.483Z,100286.00
2023-03-24T13:44:23.983Z,100290.13
2023-03-24T13:47:18.970Z,100297.44
2023-03-24T13:50:11.709Z,100301.84
2023-03-24T13:52:44.333Z,100295.75
2023-03-24T13:55:15.344Z,100291.03
2023-03-24T13:57:54.089Z,100302.78
2023-03-24T14:00:24.524Z,100308.38
2023-03-24T14:02:55.635Z,100308.56
2023-03-24T14:05:21.977Z,100324.66
2023-03-24T14:08:10.766Z,100320.41
2023-03-24T14:10:40.155Z,100323.03
2023-03-24T14:13:17.041Z,100338.09
2023-03-24T14:16:02.151Z,100326.38
2023-03-24T14:18:29.577Z,100337.03
2023-03-24T14:21:01.891Z,100313.75
2023-03-24T14:23:39.840Z,100321.56
2023-03-24T14:26:28.856Z,100302.44
2023-03-24T14:28:57.649Z,100304.09
2023-03-24T14:31:32.209Z,100295.00
2023-03-24T14:34:05.013Z,100282.50
2023-03-24T14:36:43.066Z,100284.56
2023-03-24T14:39:27.731Z,100292.09
2023-03-24T14:41:59.028Z,100280.50
2023-03-24T14:44:47.420Z,100279.56
2023-03-24T14:47:23.538Z,100281.44
2023-03-24T14:49:55.068Z,100274.81
2023-03-24T14:52:34.046Z,100266.53
2023-03-24T14:55:06.106Z,100265.69
2023-03-24T14:57:59.321Z,100276.72
2023-03-24T15:00:32.711Z,100273.59
2023-03-24T15:03:12.023Z,100279.59
2023-03-24T15:05:38.501Z,100266.16
2023-03-24T15:08:21.944Z,100268.97
2023-03-24T15:10:53.290Z,100269.75
2023-03-24T15:13:28.414Z,100267.50
2023-03-24T15:15:59.880Z,100266.41
2023-03-24T15:18:26.590Z,100258.91
2023-03-24T15:20:54.089Z,100273.78
2023-03-24T15:23:26.210Z,100263.19
2023-03-24T15:25:56.261Z,100266.66
2023-03-24T15:28:28.756Z,100252.31
2023-03-24T15:30:58.941Z,100258.00
2023-03-24T15:33:27.058Z,100253.28
2023-03-24T15:35:58.870Z,100255.03
2023-03-24T15:38:32.972Z,100251.84
2023-03-24T15:41:11.098Z,100251.38
2023-03-24T15:43:44.509Z,100248.84
2023-03-24T15:46:27.647Z,100248.91
2023-03-24T15:48:58.965Z,100242.69
2023-03-24T15:51:49.335Z,100242.38
2023-03-24T15:54:24.662Z,100238.59
2023-03-24T15:57:14.107Z,100226.72
2023-03-24T15:59:56.053Z,100225.78
2023-03-24T16:02:45.851Z,100228.53
2023-03-24T16:05:30.640Z,100230.81
2023-03-24T16:08:23.173Z,100231.00
2023-03-24T16:10:58.220Z,100227.59
2023-03-24T16:13:27.979Z,100227.66
2023-03-24T16:15:57.869Z,100223.09
2023-03-24T16:18:30.381Z,100225.47
2023-03-24T16:20:59.113Z,100213.44
2023-03-24T16:23:32.530Z,100224.19
2023-03-24T16:26:01.438Z,100231.47
2023-03-24T16:28:32.753Z,100215.69
2023-03-24T16:31:03.921Z,100225.91
2023-03-24T16:33:37.894Z,100222.50
2023-03-24T16:36:04.443Z,100226.25
2023-03-24T16:38:42.317Z,100234.94
2023-03-24T16:41:10.990Z,100239.81
2023-03-24T16:43:40.701Z,100257.63
2023-03-24T16:46:29.721Z,100254.53
2023-03-24T16:48:57.378Z,100234.78
2023-03-24T16:51:24.368Z,100228.97
2023-03-24T16:53:50.867Z,100241.72
2023-03-24T16:56:21.970Z,100249.59
2023-03-24T16:58:49.608Z,100250.78
2023-03-24T17:01:18.882Z,100237.75
2023-03-24T17:03:45.528Z,100240.00
2023-03-24T17:06:12.277Z,100248.03
2023-03-24T17:08:38.745Z,100251.72
2023-03-24T17:11:07.524Z,100237.16
2023-03-24T17:13:33.965Z,100234.09
2023-03-24T17:16:15.900Z,100249.19
2023-03-24T17:18:42.823Z,100249.84
2023-03-24T17:21:18.250Z,100243.91
2023-03-24T17:23:50.458Z,100249.84
2023-03-24T17:26:19.495Z,100243.56
2023-03-24T17:28:48.733Z,100240.16
2023-03-24T17:31:15.316Z,100244.41
2023-03-24T17:33:41.903Z,100235.50
2023-03-24T17:36:13.940Z,100232.59
2023-03-24T17:38:40.298Z,100230.88
2023-03-24T17:41:06.983Z,100222.56
2023-03-24T17:43:33.782Z,100219.31
2023-03-24T17:46:03.971Z,100231.31
2023-03-24T17:48:30.751Z,100225.75
2023-03-24T17:50:57.108Z,100221.50
2023-03-24T17:53:26.970Z,100224.22
2023-03-24T17:55:58.936Z,100225.28
2023-03-24T17:58:27.106Z,100228.16
2023-03-24T18:00:54.133Z,100238.84
2023-03-24T18:03:25.981Z,100239.88
2023-03-24T18:05:57.097Z,100241.53
2023-03-24T18:08:24.635Z,100234.44
2023-03-24T18:10:53.073Z,100232.25
2023-03-24T18:13:19.602Z,100223.25
2023-03-24T18:15:50.869Z,100229.66
2023-03-24T18:18:17.258Z,100226.94
2023-03-24T18:20:46.546Z,100218.00
2023-03-24T18:23:22.614Z,100229.00
2023-03-24T18:26:01.796Z,100218.66
2023-03-24T18:28:32.520Z,100219.47
2023-03-24T18:30:58.874Z,100214.84
2023-03-24T18:33:28.395Z,100208.94
2023-03-24T18:35:55.289Z,100224.13
2023-03-24T18:38:29.287Z,100224.22
2023-03-24T18:41:04.931Z,100223.25
2023-03-24T18:43:34.704Z,100229.16
2023-03-24T18:46:05.132Z,100220.81
2023-03-24T18:48:31.474Z,100217.72
2023-03-24T18:50:57.807Z,100225.22
2023-03-24T18:53:25.362Z,100219.31
2023-03-24T18:55:54.713Z,100222.91
2023-03-24T18:58:24.338Z,100213.06
2023-03-24T19:00:54.602Z,100214.75
2023-03-24T19:03:22.368Z,100223.97
2023-03-24T19:05:49.928Z,100227.69
2023-03-24T19:08:35.622Z,100223.78
2023-03-24T19:11:04.557Z,100236.50
2023-03-24T19:13:30.939Z,100231.38
2023-03-24T19:15:58.522Z,100224.94
2023-03-24T19:18:25.559Z,100223.22
2023-03-24T19:20:56.566Z,100231.50
2023-03-24T19:23:27.960Z,100217.81
2023-03-24T19:25:57.268Z,100209.00
2023-03-24T19:28:31.551Z,100221.06
2023-03-24T19:31:00.205Z,100215.94
2023-03-24T19:33:27.488Z,100216.22
2023-03-24T19:35:55.576Z,100223.03
2023-03-24T19:38:22.362Z,100215.09
2023-03-24T19:40:48.908Z,100214.66
2023-03-24T19:43:15.246Z,100213.50
2023-03-24T19:45:41.557Z,100223.88
2023-03-24T19:48:11.324Z,100213.81
2023-03-24T19:50:38.032Z,100216.22
2023-03-24T19:53:08.380Z,100212.97
2023-03-24T19:55:34.965Z,100218.53
2023-03-24T19:58:04.316Z,100204.31
2023-03-24T20:00:30.861Z,100201.25
2023-03-24T20:02:57.286Z,100207.84
2023-03-24T20:05:23.803Z,100205.75
2023-03-24T20:07:51.329Z,100206.25
2023-03-24T20:10:17.785Z,100195.38
2023-03-24T20:12:44.097Z,100191.28
2023-03-24T20:15:13.254Z,100184.63
2023-03-24T20:17:39.666Z,100184.00
2023-03-24T20:20:08.674Z,100191.09
2023-03-24T20:22:35.073Z,100183.47
2023-03-24T20:25:01.477Z,100181.22
2023-03-24T20:27:27.891Z,100186.09
2023-03-24T20:29:59.033Z,100189.28
2023-03-24T20:32:25.588Z,100188.66
2023-03-24T20:34:52.093Z,100186.25
2023-03-24T20:37:21.256Z,100190.88
2023-03-24T20:39:51.022Z,100199.06
2023-03-24T20:42:19.753Z,100181.66
2023-03-24T20:44:46.078Z,100188.66
2023-03-24T20:47:12.435Z,100190.91
2023-03-24T20:49:38.728Z,100191.84
2023-03-24T20:52:05.224Z,100193.84
2023-03-24T20:54:31.552Z,100193.31
2023-03-24T20:56:59.614Z,100192.81
2023-03-24T20:59:25.951Z,100188.66
2023-03-24T21:01:52.265Z,100192.44
2023-03-24T21:04:22.533Z,100181.00
2023-03-24T21:06:48.885Z,100181.16
2023-03-24T21:09:21.638Z,100181.16
2023-03-24T21:11:51.052Z,100186.97
2023-03-24T21:14:17.448Z,100180.56
2023-03-24T21:16:44.056Z,100188.72
2023-03-24T21:19:10.495Z,100189.19
2023-03-24T21:21:37.009Z,100177.41
2023-03-24T21:24:09.294Z,100188.66
2023-03-24T21:26:38.018Z,100185.03
2023-03-24T21:29:04.341Z,100185.88
2023-03-24T21:31:30.667Z,100184.22
2023-03-24T21:33:59.949Z,100185.88
2023-03-24T21:36:27.465Z,100186.94
2023-03-24T21:38:58.398Z,100196.34
2023-03-24T21:41:24.839Z,100184.53
2023-03-24T21:43:51.504Z,100184.94
2023-03-24T21:46:20.272Z,100188.63
2023-03-24T21:49:00.655Z,100188.34
2023-03-24T21:51:29.405Z,100188.34
2023-03-24T21:53:56.284Z,100195.38
2023-03-24T21:56:23.174Z,100192.34
2023-03-24T21:58:49.508Z,100179.53
2023-03-24T22:01:20.013Z,100182.06
2023-03-24T22:03:46.456Z,100181.03
2023-03-24T22:06:13.009Z,100177.06
2023-03-24T22:08:40.046Z,100184.91
2023-03-24T22:11:09.503Z,100192.47
2023-03-24T22:13:35.986Z,100198.81
2023-03-24T22:16:05.826Z,100192.34
2023-03-24T22:18:33.855Z,100178.69
2023-03-24T22:21:06.509Z,100196.28
2023-03-24T22:23:37.355Z,100191.34
2023-03-24T22:26:09.617Z,100188.34
2023-03-24T22:28:36.921Z,100187.34
2023-03-24T22:31:08.075Z,100191.19
2023-03-24T22:33:35.071Z,100200.16
2023-03-24T22:36:02.323Z,100197.78
2023-03-24T22:38:29.819Z,100198.31
2023-03-24T22:41:01.194Z,100187.50
2023-03-24T22:43:28.929Z,100188.50
2023-03-24T22:45:56.502Z,100197.78
2023-03-24T22:48:23.535Z,100187.81
2023-03-24T22:50:50.432Z,100191.84
2023-03-24T22:53:17.095Z,100191.31
2023-03-24T22:55:48.221Z,100188.91
2023-03-24T22:58:16.840Z,100190.75
2023-03-24T23:00:48.666Z,100183.34
2023-03-24T23:03:15.276Z,100189.13
2023-03-24T23:05:47.323Z,100186.75
2023-03-24T23:08:20.642Z,100187.41
2023-03-24T23:10:47.635Z,100183.19
2023-03-24T23:13:17.260Z,100180.88
2023-03-24T23:15:45.155Z,100189.44
2023-03-24T23:18:11.562Z,100196.38
2023-03-24T23:20:37.907Z,100179.31
2023-03-24T23:23:06.779Z,100183.94
2023-03-24T23:25:45.148Z,100191.72
2023-03-24T23:28:14.409Z,100198.13
2023-03-24T23:30:41.219Z,100189.88
2023-03-24T23:33:10.864Z,100197.88
2023-03-24T23:35:39.748Z,100195.91
2023-03-24T23:38:06.081Z,100196.16
2023-03-24T23:40:32.371Z,100204.25
2023-03-24T23:42:59.940Z,100199.78
2023-03-24T23:45:27.705Z,100193.91
2023-03-24T23:47:56.783Z,100210.59
2023-03-24T23:50:23.524Z,100194.38
2023-03-24T23:52:49.824Z,100195.75
2023-03-24T23:55:20.024Z,100191.19
2023-03-24T23:57:47.191Z,100200.00
